createdAt,value
2019-01-10T00:00:49.361Z,64.84
2019-01-10T00:03:19.395Z,64.67
2019-01-10T00:05:49.058Z,65.02
2019-01-10T00:08:19.071Z,64.37
2019-01-10T00:10:48.549Z,64.06
2019-01-10T00:13:18.068Z,64.24
2019-01-10T00:15:47.652Z,64.09
2019-01-10T00:18:17.591Z,63.45
2019-01-10T00:20:47.546Z,63.90
2019-01-10T00:23:17.021Z,63.15
2019-01-10T00:25:46.535Z,63.67
2019-01-10T00:28:16.065Z,64.74
2019-01-10T00:30:45.553Z,64.09
2019-01-10T00:33:15.061Z,64.08
2019-01-10T00:35:44.611Z,63.50
2019-01-10T00:38:14.173Z,63.89
2019-01-10T00:40:43.819Z,63.38
2019-01-10T00:43:13.701Z,64.04
2019-01-10T00:45:43.347Z,63.81
2019-01-10T00:48:12.833Z,63.50
2019-01-10T00:50:42.351Z,63.69
2019-01-10T00:53:11.829Z,63.36
2019-01-10T00:55:41.706Z,63.45
2019-01-10T00:58:11.864Z,64.07
2019-01-10T01:00:41.366Z,63.34
2019-01-10T01:03:10.821Z,63.24
2019-01-10T01:05:40.881Z,63.22
2019-01-10T01:08:10.351Z,63.07
2019-01-10T01:10:39.902Z,62.66
2019-01-10T01:13:09.427Z,62.49
2019-01-10T01:15:38.977Z,62.76
2019-01-10T01:18:08.575Z,62.87
2019-01-10T01:20:38.198Z,62.18
2019-01-10T01:23:07.716Z,62.29
2019-01-10T01:25:37.291Z,62.87
2019-01-10T01:28:07.261Z,61.79
2019-01-10T01:30:36.767Z,62.57
2019-01-10T01:33:06.279Z,63.56
2019-01-10T01:35:35.795Z,63.18
2019-01-10T01:38:05.237Z,63.26
2019-01-10T01:40:34.802Z,62.45
2019-01-10T01:43:07.491Z,62.86
2019-01-10T01:45:35.755Z,62.74
2019-01-10T01:48:05.407Z,62.31
2019-01-10T01:50:34.983Z,62.27
2019-01-10T01:53:04.469Z,62.14
2019-01-10T01:55:34.359Z,62.15
2019-01-10T01:58:03.883Z,62.17
2019-01-10T02:00:33.416Z,61.71
2019-01-10T02:03:02.966Z,61.89
2019-01-10T02:05:32.484Z,61.85
2019-01-10T02:08:01.963Z,62.22
2019-01-10T02:10:31.439Z,62.45
2019-01-10T02:13:01.145Z,61.96
2019-01-10T02:15:30.653Z,62.21
2019-01-10T02:18:00.143Z,61.80
2019-01-10T02:20:29.623Z,62.33
2019-01-10T02:22:59.141Z,61.88
2019-01-10T02:25:28.623Z,61.86
2019-01-10T02:27:58.127Z,61.94
2019-01-10T02:30:27.665Z,61.90
2019-01-10T02:32:57.150Z,61.59
2019-01-10T02:35:27.022Z,61.68
2019-01-10T02:37:56.506Z,61.18
2019-01-10T02:42:54.724Z,61.77
2019-01-10T02:45:24.217Z,61.78
2019-01-10T02:47:53.701Z,61.23
2019-01-10T02:50:24.119Z,61.68
2019-01-10T02:52:53.753Z,61.42
2019-01-10T02:55:23.337Z,61.29
2019-01-10T02:57:52.937Z,61.36
2019-01-10T03:00:25.011Z,61.04
2019-01-10T03:02:54.854Z,60.59
2019-01-10T03:05:24.751Z,60.44
2019-01-10T03:07:54.335Z,60.10
2019-01-10T03:10:25.815Z,59.55
2019-01-10T03:12:55.747Z,59.70
2019-01-10T03:15:26.124Z,59.74
2019-01-10T03:17:55.600Z,60.02
2019-01-10T03:20:25.206Z,60.45
2019-01-10T03:22:55.287Z,60.21
2019-01-10T03:25:24.819Z,60.37
2019-01-10T03:27:54.355Z,60.55
2019-01-10T03:30:23.865Z,60.57
2019-01-10T03:32:53.375Z,61.09
2019-01-10T03:35:23.520Z,60.88
2019-01-10T03:37:52.991Z,61.56
2019-01-10T03:40:22.846Z,61.05
2019-01-10T03:42:52.336Z,60.63
2019-01-10T03:45:22.303Z,60.52
2019-01-10T03:47:51.775Z,60.67
2019-01-10T03:50:21.366Z,60.56
2019-01-10T03:52:50.878Z,60.97
2019-01-10T03:55:20.755Z,60.96
2019-01-10T03:57:50.773Z,60.22
2019-01-10T04:00:22.966Z,60.82
2019-01-10T04:02:52.543Z,60.88
2019-01-10T04:05:22.178Z,61.12
2019-01-10T04:07:52.365Z,60.62
2019-01-10T04:10:21.890Z,60.10
2019-01-10T04:12:52.890Z,60.03
2019-01-10T04:15:22.374Z,60.06
2019-01-10T04:17:51.869Z,60.40
2019-01-10T04:20:21.480Z,60.69
2019-01-10T04:22:51.015Z,60.78
2019-01-10T04:25:20.531Z,61.09
2019-01-10T04:27:50.054Z,60.51
2019-01-10T04:30:20.755Z,61.13
2019-01-10T04:32:50.295Z,61.32
2019-01-10T04:35:20.246Z,61.92
2019-01-10T04:37:49.782Z,61.64
2019-01-10T04:40:20.389Z,61.19
2019-01-10T04:42:50.064Z,61.37
2019-01-10T04:45:20.045Z,61.34
2019-01-10T04:47:49.539Z,61.20
2019-01-10T04:50:19.226Z,61.80
2019-01-10T04:52:48.697Z,62.06
2019-01-10T04:55:37.652Z,62.16
2019-01-10T04:58:07.290Z,62.00
2019-01-10T05:00:36.860Z,62.54
2019-01-10T05:03:06.315Z,62.91
2019-01-10T05:05:35.899Z,62.66
2019-01-10T05:08:05.425Z,62.20
2019-01-10T05:10:35.018Z,62.62
2019-01-10T05:13:04.524Z,62.49
2019-01-10T05:15:33.999Z,62.19
2019-01-10T05:18:03.801Z,61.88
2019-01-10T05:20:33.280Z,63.42
2019-01-10T05:23:03.228Z,62.86
2019-01-10T05:25:32.792Z,62.88
2019-01-10T05:28:02.272Z,63.17
2019-01-10T05:30:31.746Z,63.16
2019-01-10T05:33:01.723Z,63.03
2019-01-10T05:35:31.240Z,63.13
2019-01-10T05:38:00.716Z,63.88
2019-01-10T05:40:30.590Z,63.48
2019-01-10T05:43:00.095Z,63.77
2019-01-10T05:45:29.551Z,64.04
2019-01-10T05:47:59.068Z,63.98
2019-01-10T05:50:28.537Z,64.21
2019-01-10T05:52:58.088Z,64.75
2019-01-10T05:55:27.649Z,64.47
2019-01-10T05:57:57.221Z,65.00
2019-01-10T06:00:27.455Z,64.64
2019-01-10T06:02:57.284Z,64.59
2019-01-10T06:05:26.785Z,64.79
2019-01-10T06:07:56.359Z,64.36
2019-01-10T06:10:27.984Z,64.60
2019-01-10T06:12:57.724Z,64.47
2019-01-10T06:15:27.371Z,64.66
2019-01-10T06:17:56.974Z,64.40
2019-01-10T06:20:26.474Z,64.17
2019-01-10T06:22:56.012Z,64.39
2019-01-10T06:25:25.857Z,64.71
2019-01-10T06:27:55.358Z,64.54
2019-01-10T06:30:27.535Z,64.09
2019-01-10T06:32:57.043Z,64.00
2019-01-10T06:35:26.574Z,64.35
2019-01-10T06:37:56.136Z,64.03
2019-01-10T06:40:25.882Z,64.00
2019-01-10T06:42:55.791Z,63.52
2019-01-10T06:45:25.344Z,63.52
2019-01-10T06:47:54.880Z,63.37
2019-01-10T06:50:24.374Z,63.20
2019-01-10T06:52:53.862Z,63.47
2019-01-10T06:55:23.369Z,63.38
2019-01-10T06:57:52.840Z,62.57
2019-01-10T07:00:24.430Z,62.88
2019-01-10T07:02:54.485Z,62.72
2019-01-10T07:05:23.974Z,62.58
2019-01-10T07:07:56.530Z,62.80
2019-01-10T07:10:29.117Z,62.92
2019-01-10T07:12:58.870Z,62.70
2019-01-10T07:15:28.375Z,63.24
2019-01-10T07:17:57.906Z,63.16
2019-01-10T07:20:27.392Z,62.50
2019-01-10T07:22:56.874Z,61.70
2019-01-10T07:25:26.390Z,61.59
2019-01-10T07:27:56.719Z,62.26
2019-01-10T07:30:35.695Z,62.07
2019-01-10T07:32:59.662Z,61.23
2019-01-10T07:35:29.243Z,61.33
2019-01-10T07:37:58.701Z,61.27
2019-01-10T07:40:28.213Z,60.84
2019-01-10T07:42:57.966Z,61.00
2019-01-10T07:45:27.644Z,61.10
2019-01-10T07:47:57.205Z,61.30
2019-01-10T07:50:29.696Z,61.48
2019-01-10T07:52:59.180Z,61.51
2019-01-10T07:55:29.078Z,61.32
2019-01-10T07:57:58.591Z,60.84
2019-01-10T08:00:28.067Z,61.13
2019-01-10T08:02:57.580Z,60.79
2019-01-10T08:05:27.026Z,60.55
2019-01-10T08:07:56.522Z,60.11
2019-01-10T08:10:26.059Z,60.70
2019-01-10T08:12:55.605Z,60.21
2019-01-10T08:15:25.204Z,60.59
2019-01-10T08:17:56.115Z,60.47
2019-01-10T08:20:25.698Z,60.29
2019-01-10T08:22:55.184Z,60.28
2019-01-10T08:25:24.698Z,60.31
2019-01-10T08:27:54.250Z,59.85
2019-01-10T08:30:24.931Z,59.94
2019-01-10T08:32:54.506Z,60.01
2019-01-10T08:35:24.802Z,59.52
2019-01-10T08:37:54.416Z,59.71
2019-01-10T08:40:23.976Z,59.82
2019-01-10T08:42:53.443Z,59.84
2019-01-10T08:45:23.435Z,59.45
2019-01-10T08:47:53.349Z,59.56
2019-01-10T08:50:25.045Z,59.45
2019-01-10T08:52:54.664Z,59.60
2019-01-10T08:55:24.431Z,59.57
2019-01-10T08:57:54.118Z,59.37
2019-01-10T09:00:24.200Z,58.75
2019-01-10T09:02:53.893Z,58.84
2019-01-10T09:05:23.397Z,58.79
2019-01-10T09:07:52.899Z,59.10
2019-01-10T09:10:25.470Z,58.75
2019-01-10T09:12:55.891Z,58.46
2019-01-10T09:15:33.868Z,58.28
2019-01-10T09:17:57.187Z,58.51
2019-01-10T09:20:26.668Z,58.05
2019-01-10T09:22:56.235Z,57.49
2019-01-10T09:25:25.802Z,57.75
2019-01-10T09:27:55.343Z,57.29
2019-01-10T09:30:24.887Z,57.46
2019-01-10T09:32:54.439Z,56.88
2019-01-10T09:35:23.955Z,57.48
2019-01-10T09:37:53.638Z,56.67
2019-01-10T09:40:24.119Z,56.55
2019-01-10T09:42:53.950Z,56.37
2019-01-10T09:45:24.549Z,55.55
2019-01-10T09:47:54.335Z,55.99
2019-01-10T09:50:24.206Z,56.69
2019-01-10T09:52:54.454Z,56.35
2019-01-10T09:55:24.084Z,55.60
2019-01-10T09:57:53.547Z,55.10
2019-01-10T10:00:26.915Z,55.07
2019-01-10T10:02:56.842Z,54.39
2019-01-10T10:05:26.419Z,54.66
2019-01-10T10:07:55.968Z,55.07
2019-01-10T10:10:25.762Z,55.96
2019-01-10T10:12:55.425Z,55.14
2019-01-10T10:15:25.014Z,55.01
2019-01-10T10:17:54.671Z,54.84
2019-01-10T10:20:25.289Z,54.43
2019-01-10T10:22:55.767Z,54.36
2019-01-10T10:25:26.067Z,54.64
2019-01-10T10:27:56.171Z,54.28
2019-01-10T10:30:25.643Z,53.70
2019-01-10T10:32:55.168Z,54.34
2019-01-10T10:35:25.175Z,54.22
2019-01-10T10:37:54.660Z,54.29
2019-01-10T10:40:24.237Z,54.58
2019-01-10T10:42:54.161Z,53.78
2019-01-10T10:45:43.444Z,54.46
2019-01-10T10:48:13.670Z,54.25
2019-01-10T10:50:43.471Z,53.97
2019-01-10T10:53:12.975Z,54.27
2019-01-10T10:55:42.479Z,54.35
2019-01-10T10:58:11.952Z,54.22
2019-01-10T11:00:41.488Z,53.92
2019-01-10T11:03:10.951Z,53.87
2019-01-10T11:05:40.434Z,54.89
2019-01-10T11:08:09.988Z,55.90
2019-01-10T11:10:39.498Z,55.32
2019-01-10T11:13:09.146Z,55.30
2019-01-10T11:15:38.666Z,55.10
2019-01-10T11:18:08.209Z,54.54
2019-01-10T11:20:37.698Z,54.56
2019-01-10T11:23:10.763Z,55.47
2019-01-10T11:25:38.488Z,54.91
2019-01-10T11:28:08.399Z,54.13
2019-01-10T11:30:38.066Z,54.63
2019-01-10T11:33:07.555Z,54.22
2019-01-10T11:35:37.051Z,53.89
2019-01-10T11:38:06.658Z,53.10
2019-01-10T11:40:36.152Z,52.65
2019-01-10T11:43:05.626Z,52.35
2019-01-10T11:45:35.108Z,52.22
2019-01-10T11:48:04.592Z,52.43
2019-01-10T11:50:34.098Z,53.03
2019-01-10T11:53:04.177Z,53.36
2019-01-10T11:55:33.646Z,53.30
2019-01-10T11:58:03.139Z,53.50
2019-01-10T12:00:32.914Z,53.27
2019-01-10T12:03:02.470Z,52.64
2019-01-10T12:05:32.055Z,52.89
2019-01-10T12:08:01.598Z,52.68
2019-01-10T12:10:31.090Z,53.09
2019-01-10T12:13:01.154Z,53.29
2019-01-10T12:15:31.650Z,53.39
2019-01-10T12:18:01.359Z,54.07
2019-01-10T12:20:31.232Z,53.92
2019-01-10T12:23:01.919Z,54.22
2019-01-10T12:25:31.408Z,54.90
2019-01-10T12:28:01.095Z,54.94
2019-01-10T12:30:30.796Z,54.95
2019-01-10T12:33:00.234Z,54.88
2019-01-10T12:35:29.806Z,55.10
2019-01-10T12:37:59.385Z,54.49
2019-01-10T12:40:28.881Z,54.25
2019-01-10T12:42:58.399Z,54.01
2019-01-10T12:45:28.378Z,54.16
2019-01-10T12:47:57.858Z,53.18
2019-01-10T12:50:29.872Z,53.51
2019-01-10T12:52:59.394Z,53.92
2019-01-10T12:55:28.958Z,54.30
2019-01-10T12:57:58.533Z,54.29
2019-01-10T13:00:28.096Z,54.29
2019-01-10T13:02:58.131Z,54.09
2019-01-10T13:05:27.639Z,54.21
2019-01-10T13:08:03.451Z,54.55
2019-01-10T13:10:28.559Z,54.42
2019-01-10T13:12:58.597Z,54.50
2019-01-10T13:15:28.107Z,53.93
2019-01-10T13:17:57.669Z,54.10
2019-01-10T13:20:27.161Z,54.07
2019-01-10T13:22:57.134Z,53.92
2019-01-10T13:25:26.632Z,54.45
2019-01-10T13:27:57.322Z,55.04
2019-01-10T13:30:26.993Z,54.34
2019-01-10T13:32:56.728Z,54.14
2019-01-10T13:35:26.831Z,54.07
2019-01-10T13:37:56.419Z,54.37
2019-01-10T13:40:26.076Z,54.37
2019-01-10T13:42:55.555Z,54.72
2019-01-10T13:45:25.530Z,54.26
2019-01-10T13:47:55.209Z,54.45
2019-01-10T13:50:28.075Z,54.01
2019-01-10T13:52:57.647Z,53.40
2019-01-10T13:55:27.165Z,53.47
2019-01-10T13:57:56.653Z,52.31
2019-01-10T14:00:35.242Z,53.16
2019-01-10T14:03:00.630Z,53.80
2019-01-10T14:05:31.053Z,54.02
2019-01-10T14:08:00.539Z,54.48
2019-01-10T14:10:30.395Z,54.84
2019-01-10T14:12:59.849Z,55.29
2019-01-10T14:15:31.463Z,55.17
2019-01-10T14:18:00.936Z,55.51
2019-01-10T14:20:30.440Z,55.75
2019-01-10T14:22:59.934Z,56.20
2019-01-10T14:25:29.561Z,56.99
2019-01-10T14:27:59.980Z,56.80
2019-01-10T14:30:34.151Z,57.33
2019-01-10T14:33:04.003Z,56.86
2019-01-10T14:35:33.509Z,56.82
2019-01-10T14:38:02.990Z,57.08
2019-01-10T14:40:32.482Z,57.62
2019-01-10T14:43:01.969Z,57.97
2019-01-10T14:45:32.059Z,58.20
2019-01-10T14:48:02.107Z,58.03
2019-01-10T14:50:32.042Z,58.09
2019-01-10T14:53:01.608Z,58.48
2019-01-10T14:55:31.192Z,58.66
2019-01-10T14:58:00.697Z,58.33
2019-01-10T15:00:30.245Z,58.44
2019-01-10T15:02:59.751Z,58.90
2019-01-10T15:05:34.442Z,59.79
2019-01-10T15:08:00.434Z,60.07
2019-01-10T15:10:29.913Z,59.97
2019-01-10T15:12:59.466Z,59.63
2019-01-10T15:15:29.162Z,59.61
2019-01-10T15:18:06.423Z,60.03
2019-01-10T15:20:36.021Z,60.27
2019-01-10T15:23:05.641Z,60.64
2019-01-10T15:25:35.144Z,60.95
2019-01-10T15:28:04.759Z,61.08
2019-01-10T15:30:34.245Z,61.46
2019-01-10T15:33:03.721Z,62.06
2019-01-10T15:35:33.836Z,62.92
2019-01-10T15:38:03.372Z,62.65
2019-01-10T15:40:34.151Z,62.67
2019-01-10T15:43:04.117Z,62.78
2019-01-10T15:45:33.634Z,63.03
2019-01-10T15:48:03.172Z,63.38
2019-01-10T15:50:32.683Z,63.48
2019-01-10T15:53:02.196Z,63.36
2019-01-10T15:55:31.854Z,63.46
2019-01-10T15:58:01.435Z,63.67
2019-01-10T16:00:30.950Z,63.18
2019-01-10T16:03:00.450Z,63.81
2019-01-10T16:05:30.063Z,63.69
2019-01-10T16:07:59.561Z,63.78
2019-01-10T16:10:29.130Z,63.59
2019-01-10T16:12:58.685Z,63.71
2019-01-10T16:15:28.177Z,63.80
2019-01-10T16:17:57.684Z,63.94
2019-01-10T16:20:27.837Z,64.60
2019-01-10T16:22:57.375Z,64.36
2019-01-10T16:25:26.980Z,65.08
2019-01-10T16:27:56.494Z,64.73
2019-01-10T16:30:28.582Z,64.62
2019-01-10T16:32:58.114Z,64.43
2019-01-10T16:35:28.803Z,64.26
2019-01-10T16:37:58.351Z,64.65
2019-01-10T16:40:29.543Z,64.75
2019-01-10T16:42:59.314Z,64.75
2019-01-10T16:45:29.568Z,64.45
2019-01-10T16:47:59.149Z,64.83
2019-01-10T16:50:28.722Z,65.20
2019-01-10T16:52:58.265Z,65.43
2019-01-10T16:55:27.748Z,65.35
2019-01-10T16:57:57.353Z,65.45
2019-01-10T17:00:30.449Z,66.06
2019-01-10T17:03:00.100Z,65.91
2019-01-10T17:05:29.607Z,66.03
2019-01-10T17:07:59.168Z,65.72
2019-01-10T17:10:28.749Z,65.62
2019-01-10T17:12:58.727Z,65.75
2019-01-10T17:15:28.278Z,65.73
2019-01-10T17:17:57.756Z,65.98
2019-01-10T17:20:28.295Z,66.50
2019-01-10T17:22:57.814Z,66.69
2019-01-10T17:25:27.345Z,66.77
2019-01-10T17:27:56.853Z,66.97
2019-01-10T17:30:30.177Z,66.86
2019-01-10T17:32:59.654Z,66.82
2019-01-10T17:35:32.640Z,66.94
2019-01-10T17:38:03.058Z,66.63
2019-01-10T17:40:32.953Z,66.39
2019-01-10T17:43:03.195Z,66.66
2019-01-10T17:45:33.983Z,67.51
2019-01-10T17:48:03.676Z,67.55
2019-01-10T17:50:33.185Z,67.70
2019-01-10T17:53:02.691Z,67.10
2019-01-10T17:55:32.160Z,67.57
2019-01-10T17:58:02.058Z,67.55
2019-01-10T18:00:32.505Z,67.53
2019-01-10T18:03:02.105Z,67.58
2019-01-10T18:05:31.596Z,67.68
2019-01-10T18:08:01.381Z,67.19
2019-01-10T18:10:31.059Z,67.28
2019-01-10T18:13:00.600Z,67.37
2019-01-10T18:15:31.505Z,67.83
2019-01-10T18:18:00.961Z,69.10
2019-01-10T18:20:36.078Z,68.75
2019-01-10T18:23:06.678Z,68.05
2019-01-10T18:25:36.152Z,68.39
2019-01-10T18:28:06.444Z,68.71
2019-01-10T18:30:36.206Z,68.61
2019-01-10T18:33:05.695Z,68.74
2019-01-10T18:35:35.877Z,68.77
2019-01-10T18:38:05.567Z,68.85
2019-01-10T18:40:35.140Z,68.38
2019-01-10T18:43:04.956Z,68.49
2019-01-10T18:45:34.486Z,68.33
2019-01-10T18:48:03.983Z,69.16
2019-01-10T18:50:33.551Z,68.67
2019-01-10T18:53:03.035Z,68.62
2019-01-10T18:55:32.544Z,68.99
2019-01-10T18:58:02.096Z,69.48
2019-01-10T19:00:32.122Z,69.83
2019-01-10T19:03:02.001Z,69.40
2019-01-10T19:05:31.653Z,69.47
2019-01-10T19:08:01.167Z,70.27
2019-01-10T19:10:30.668Z,70.09
2019-01-10T19:13:00.187Z,69.51
2019-01-10T19:15:29.759Z,69.25
2019-01-10T19:18:03.319Z,69.56
2019-01-10T19:20:30.533Z,69.77
2019-01-10T19:23:00.088Z,69.59
2019-01-10T19:25:29.591Z,69.85
2019-01-10T19:27:59.484Z,69.35
2019-01-10T19:30:31.018Z,69.74
2019-01-10T19:33:01.434Z,70.25
2019-01-10T19:35:31.305Z,70.38
2019-01-10T19:38:00.776Z,71.27
2019-01-10T19:40:30.265Z,71.38
2019-01-10T19:42:59.773Z,71.33
2019-01-10T19:45:29.348Z,72.13
2019-01-10T19:47:58.845Z,72.53
2019-01-10T19:50:28.539Z,72.24
2019-01-10T19:52:58.100Z,72.85
2019-01-10T19:55:27.822Z,72.49
2019-01-10T19:57:57.307Z,73.04
2019-01-10T20:00:36.813Z,73.09
2019-01-10T20:03:25.864Z,73.17
2019-01-10T20:05:55.433Z,74.06
2019-01-10T20:08:24.936Z,74.20
2019-01-10T20:11:01.052Z,74.81
2019-01-10T20:13:36.051Z,74.61
2019-01-10T20:16:06.569Z,73.84
2019-01-10T20:18:36.149Z,74.73
2019-01-10T20:21:07.231Z,75.87
2019-01-10T20:23:37.340Z,76.13
2019-01-10T20:26:06.870Z,75.09
2019-01-10T20:28:36.376Z,75.05
2019-01-10T20:31:06.304Z,74.81
2019-01-10T20:33:35.761Z,74.89
2019-01-10T20:36:05.319Z,75.58
2019-01-10T20:38:35.390Z,77.06
2019-01-10T20:41:04.996Z,77.09
2019-01-10T20:43:34.483Z,76.19
2019-01-10T20:46:04.129Z,76.09
2019-01-10T20:48:33.701Z,76.70
2019-01-10T20:51:03.676Z,77.67
2019-01-10T20:53:33.390Z,78.73
2019-01-10T20:56:02.895Z,78.03
2019-01-10T20:58:32.402Z,78.49
2019-01-10T21:01:01.979Z,78.28
2019-01-10T21:03:31.487Z,77.45
2019-01-10T21:06:00.965Z,77.77
2019-01-10T21:08:30.640Z,78.13
2019-01-10T21:11:00.185Z,79.46
2019-01-10T21:13:29.742Z,81.15
2019-01-10T21:16:00.335Z,81.31
2019-01-10T21:18:29.873Z,81.63
2019-01-10T21:20:59.472Z,81.63
2019-01-10T21:23:29.077Z,81.91
2019-01-10T21:25:58.587Z,82.94
2019-01-10T21:28:28.054Z,82.89
2019-01-10T21:30:57.576Z,81.95
2019-01-10T21:33:27.062Z,80.81
2019-01-10T21:35:56.576Z,80.03
2019-01-10T21:38:26.166Z,79.59
2019-01-10T21:40:55.756Z,79.25
2019-01-10T21:43:25.278Z,78.47
2019-01-10T21:45:54.812Z,79.37
2019-01-10T21:48:24.737Z,80.30
2019-01-10T21:50:57.900Z,80.62
2019-01-10T21:53:28.186Z,80.86
2019-01-10T21:55:58.148Z,80.04
2019-01-10T21:58:27.631Z,80.10
2019-01-10T22:00:57.211Z,80.28
2019-01-10T22:03:26.666Z,80.61
2019-01-10T22:05:56.198Z,80.52
2019-01-10T22:08:25.656Z,80.00
2019-01-10T22:10:55.132Z,80.45
2019-01-10T22:13:24.688Z,80.00
2019-01-10T22:15:54.410Z,80.65
2019-01-10T22:18:23.894Z,80.50
2019-01-10T22:20:53.382Z,80.42
2019-01-10T22:23:22.878Z,80.35
2019-01-10T22:25:52.462Z,80.77
2019-01-10T22:28:21.903Z,80.81
2019-01-10T22:30:51.420Z,81.16
2019-01-10T22:33:20.908Z,81.56
2019-01-10T22:35:50.395Z,81.76
2019-01-10T22:38:20.119Z,82.26
2019-01-10T22:40:49.610Z,82.21
2019-01-10T22:43:19.180Z,82.71
2019-01-10T22:45:48.690Z,82.08
2019-01-10T22:48:18.185Z,81.75
2019-01-10T22:50:48.124Z,82.40
2019-01-10T22:53:17.653Z,82.89
2019-01-10T22:55:47.156Z,82.99
2019-01-10T22:58:16.692Z,83.62
2019-01-10T23:01:00.910Z,83.42
2019-01-10T23:03:35.074Z,81.72
2019-01-10T23:06:05.136Z,83.15
2019-01-10T23:08:40.358Z,82.30
2019-01-10T23:11:14.590Z,83.48
2019-01-10T23:13:48.926Z,84.18
2019-01-10T23:16:21.284Z,83.60
2019-01-10T23:18:54.258Z,83.94
2019-01-10T23:21:22.243Z,84.48
2019-01-10T23:23:56.890Z,85.06
2019-01-10T23:26:26.372Z,85.39
2019-01-10T23:28:56.149Z,84.66
2019-01-10T23:31:25.644Z,85.03
2019-01-10T23:33:56.835Z,85.70
2019-01-10T23:36:26.646Z,85.48
2019-01-10T23:39:14.994Z,84.63
2019-01-10T23:41:44.502Z,85.39
2019-01-10T23:44:14.049Z,86.80
2019-01-10T23:46:43.578Z,86.31
2019-01-10T23:49:13.073Z,85.79
2019-01-10T23:51:42.561Z,85.35
2019-01-10T23:54:12.483Z,85.23
2019-01-10T23:56:42.105Z,85.25
2019-01-10T23:59:11.584Z,85.74
